Latest Weather Observations for Horn Island

IDQ60801

Issued at 11:32 am EST Thursday 2 April 2015 (issued every 30 minutes, with the page automatically refreshed every 10 minutes)

About weather observations | Map of weather stations | Latest weather observations for QLD | Other Formats
Station Details ID: 027058 Name: HORN ISLAND Lat: -10.58 Lon: 142.29 Height: 4.0 m
Data from the previous 72 hours. | See also: Recent months at Horn Island
Date/Time
EST
Temp
°C
App
Temp
°C
Dew
Point
Rel
Hum
%
Delta-T
°C
Wind Press
QNH
hPa
Press
MSL
hPa
Rain
since 9 am
mm
Dir
 
Spd
km/h
Gust
km/h
Spd
kts
Gust
kts
02/11:30am 29.6 31.1 24.9 76 3.3 ESE 26 37 14 20 1009.9 - 0.0
02/11:00am 29.6 30.0 24.5 74 3.6 ESE 30 37 16 20 1010.3 - 0.0
02/10:30am 29.3 31.3 25.1 78 2.9 E 24 33 13 18 1010.6 - 0.0
02/10:00am 29.1 31.4 25.1 79 2.8 ESE 22 30 12 16 1010.6 - 0.0
02/09:30am 29.0 31.5 25.4 81 2.5 ESE 22 30 12 16 1010.4 - 0.0
02/09:00am 28.8 31.1 25.0 80 2.7 ESE 22 33 12 18 1010.3 1010.3 0.0
02/08:30am 28.6 31.1 25.4 83 2.3 ESE 22 28 12 15 1010.1 - 0.0
02/08:00am 28.3 31.1 24.9 82 2.4 ESE 19 30 10 16 1010.0 - 0.0
02/07:30am 28.2 30.9 25.0 83 2.2 ESE 20 30 11 16 1009.9 - 0.0
02/07:00am 27.9 30.7 24.9 84 2.1 ESE 19 28 10 15 1009.5 - 0.0
02/06:30am 27.8 30.5 24.8 84 2.1 ESE 19 28 10 15 1009.3 - 0.0
02/06:00am 27.9 30.6 24.7 83 2.2 SE 19 26 10 14 1009.1 1009.1 0.0
02/05:30am 27.6 30.4 25.0 86 1.8 ESE 19 24 10 13 1008.7 - 0.0
02/05:00am 27.5 30.2 24.7 85 1.9 ESE 19 24 10 13 1008.2 - 0.0
02/04:30am 27.3 30.8 24.9 87 1.7 SE 15 19 8 10 1007.8 - 0.0
02/04:00am 27.3 31.6 24.9 87 1.7 SE 11 17 6 9 1007.9 - 0.0
02/03:30am 27.3 31.5 24.7 86 1.8 SSE 11 15 6 8 1008.0 - 0.0
02/03:00am 27.4 30.1 24.7 85 1.9 ESE 19 26 10 14 1008.1 1008.1 0.0
02/02:30am 27.5 30.5 24.7 85 1.9 SE 17 20 9 11 1008.4 - 0.0
02/02:00am 27.6 30.3 24.8 85 2.0 SE 19 24 10 13 1008.5 - 0.0
02/01:30am 27.5 31.0 24.9 86 1.8 SE 15 24 8 13 1008.9 - 0.0
02/01:00am 27.2 32.6 25.4 90 1.3 SE 7 11 4 6 1009.4 - 0.0
02/12:30am 27.0 31.5 25.2 90 1.3 SE 11 15 6 8 1009.7 - 0.0
02/12:00am 27.8 31.8 25.0 85 2.0 SE 13 17 7 9 1010.0 1010.0 0.0
 
Date/Time
EST
Temp
°C
App
Temp
°C
Dew
Point
Rel
Hum
%
Delta-T
°C
Wind Press
QNH
hPa
Press
MSL
hPa
Rain
since 9 am
mm
Dir
 
Spd
km/h
Gust
km/h
Spd
kts
Gust
kts
01/11:30pm 27.8 30.8 24.6 83 2.2 SE 17 22 9 12 1010.1 - 0.0
01/11:00pm 27.7 31.5 24.7 84 2.1 SE 13 20 7 11 1010.0 - 0.0
01/10:30pm 27.7 31.4 24.5 83 2.2 SE 13 17 7 9 1010.1 - 0.0
01/10:00pm 27.7 31.4 24.5 83 2.2 SE 13 17 7 9 1010.2 - 0.0
01/09:30pm 27.7 30.6 24.5 83 2.2 ESE 17 22 9 12 1010.0 - 0.0
01/09:00pm 27.8 30.5 24.2 81 2.5 SE 17 28 9 15 1009.8 1009.8 0.0
01/08:30pm 27.8 30.0 24.0 80 2.6 SE 19 26 10 14 1009.3 - 0.0
01/08:00pm 28.0 29.9 23.8 78 2.9 SE 20 30 11 16 1009.0 - 0.0
01/07:30pm 28.1 29.7 23.9 78 2.9 SE 22 32 12 17 1008.5 - 0.0
01/07:00pm 28.3 30.4 24.1 78 2.9 ESE 20 30 11 16 1008.1 - 0.0
01/06:30pm 28.5 30.5 23.9 76 3.2 SE 20 30 11 16 1007.7 - 0.0
01/06:00pm 29.0 30.1 23.7 73 3.7 SE 24 32 13 17 1007.6 1007.6 0.0
01/05:30pm 29.5 30.5 24.1 72 3.7 ESE 26 35 14 19 1007.3 - 0.0
01/05:00pm 29.9 31.5 24.5 73 3.8 ESE 24 33 13 18 1007.4 - 0.0
01/04:30pm 29.7 30.6 23.9 71 4.0 ESE 26 39 14 21 1007.5 - 0.0
01/04:00pm 30.2 30.7 23.9 69 4.4 E 28 41 15 22 1007.6 - 0.0
01/03:30pm 31.1 32.6 25.0 70 4.3 ESE 26 39 14 21 1007.8 - 0.0
01/03:00pm 30.5 31.3 24.4 70 4.3 E 28 43 15 23 1008.1 1008.1 0.0
01/02:30pm 30.8 31.8 24.7 70 4.3 ESE 28 39 15 21 1008.5 - 0.0
01/02:00pm 30.4 31.0 24.8 72 3.9 E 30 39 16 21 1008.7 - 0.0
01/01:30pm 30.6 31.3 24.3 69 4.4 E 28 39 15 21 1009.1 - 0.0
01/01:00pm 30.3 30.9 24.7 72 3.9 E 30 43 16 23 1009.5 - 0.0
01/12:30pm 30.5 30.9 24.4 70 4.3 E 30 41 16 22 1010.0 - 0.0
01/12:00pm 31.0 32.5 24.9 70 4.3 ESE 26 39 14 21 1010.5 1010.5 0.0
01/11:30am 30.5 30.5 24.4 70 4.3 E 32 43 17 23 1010.9 - 0.0
01/11:00am 30.6 31.7 25.0 72 3.9 E 28 41 15 22 1011.2 - 0.0
01/10:30am 30.1 30.9 24.5 72 3.9 ESE 28 37 15 20 1011.5 - 0.0
01/10:00am 29.5 30.5 24.1 72 3.7 ESE 26 35 14 19 1011.5 - 0.0
01/09:30am 29.2 29.3 23.9 73 3.7 ESE 30 41 16 22 1011.2 - 0.0
01/09:00am 29.4 29.5 24.0 72 3.7 ESE 30 39 16 21 1011.0 1011.0 0.2
01/08:30am 28.7 29.8 24.3 77 3.1 ESE 26 35 14 19 1011.0 - 0.2
01/08:00am 28.7 29.9 24.5 78 2.9 ESE 26 35 14 19 1010.7 - 0.2
01/07:30am 28.0 29.0 24.2 80 2.6 ESE 26 35 14 19 1010.3 - 0.2
01/07:00am 27.7 29.4 24.1 81 2.5 ESE 22 32 12 17 1009.9 - 0.2
01/06:30am 27.6 28.9 24.0 81 2.5 ESE 24 37 13 20 1009.7 - 0.2
01/06:00am 27.6 29.4 24.2 82 2.4 ESE 22 33 12 18 1009.4 1009.4 0.2
01/05:30am 27.5 29.3 24.3 83 2.2 ESE 22 32 12 17 1009.3 - 0.2
01/05:00am 27.5 29.0 24.3 83 2.2 ESE 24 33 13 18 1008.9 - 0.2
01/04:30am 27.4 28.9 24.3 83 2.1 ESE 24 37 13 20 1008.9 - 0.2
01/04:00am 27.1 29.0 24.4 85 1.9 SE 22 28 12 15 1008.7 - 0.2
01/03:30am 26.8 29.8 24.6 88 1.5 SE 17 24 9 13 1008.8 - 0.2
01/03:00am 26.5 29.4 24.5 89 1.4 SSE 17 26 9 14 1008.9 1008.9 0.2
01/02:30am 26.7 29.6 24.4 87 1.6 SSE 17 26 9 14 1009.3 - 0.2
01/02:00am 26.5 28.9 24.2 87 1.6 SSE 19 26 10 14 1009.9 - 0.2
01/01:33am 26.5 29.1 24.0 86 1.7 SE 17 28 9 15 1010.1 - 0.2
01/01:30am 26.6 28.7 24.1 86 1.7 SE 20 30 11 16 1010.1 - 0.2
01/01:20am 26.7 28.7 24.5 88 1.5 ESE 22 35 12 19 1010.3 - 0.2
01/01:00am 26.7 29.6 24.5 88 1.5 SSE 17 26 9 14 1010.3 - 0.2
01/12:30am 27.1 30.3 24.9 88 1.5 SE 17 24 9 13 1010.9 - 0.2
01/12:00am 27.8 30.3 24.4 82 2.4 SE 19 24 10 13 1011.0 1011.0 0.0
 
Date/Time
EST
Temp
°C
App
Temp
°C
Dew
Point
Rel
Hum
%
Delta-T
°C
Wind Press
QNH
hPa
Press
MSL
hPa
Rain
since 9 am
mm
Dir
 
Spd
km/h
Gust
km/h
Spd
kts
Gust
kts
31/11:30pm 27.6 30.5 24.4 83 2.2 SE 17 20 9 11 1011.1 - 0.0
31/11:00pm 27.7 30.6 24.5 83 2.2 SE 17 22 9 12 1011.3 - 0.0
31/10:30pm 27.7 30.2 24.5 83 2.2 SE 19 28 10 15 1011.5 - 0.0
31/10:00pm 27.8 30.3 24.4 82 2.4 SE 19 26 10 14 1011.6 - 0.0
31/09:30pm 27.6 30.8 24.4 83 2.2 SE 15 20 8 11 1011.4 - 0.0
31/09:00pm 27.4 30.7 24.5 84 2.0 SE 15 24 8 13 1011.2 1011.2 0.0
31/08:30pm 27.9 30.1 23.9 79 2.8 SE 19 26 10 14 1010.8 - 0.0
31/08:00pm 28.0 30.5 23.8 78 2.9 SE 17 30 9 16 1010.4 - 0.0
31/07:30pm 28.1 30.2 23.7 77 3.0 SE 19 26 10 14 1010.1 - 0.0
31/07:00pm 28.2 30.2 24.0 78 2.9 SE 20 32 11 17 1009.8 - 0.0
31/06:30pm 28.5 29.7 23.9 76 3.2 SE 24 35 13 19 1009.5 - 0.0
31/06:00pm 28.8 29.7 23.9 75 3.4 SE 26 41 14 22 1009.1 1009.1 0.0
31/05:30pm 29.1 29.4 24.2 75 3.4 SE 30 43 16 23 1008.6 - 0.0
31/05:00pm 30.0 30.5 24.6 73 3.8 ESE 30 39 16 21 1008.4 - 0.0
31/04:30pm 29.8 29.6 24.0 71 4.0 ESE 32 43 17 23 1008.4 - 0.0
31/04:00pm 30.0 29.7 23.9 70 4.2 ESE 32 43 17 23 1008.5 - 0.0
31/03:30pm 30.7 30.8 24.6 70 4.3 ESE 32 39 17 21 1008.6 - 0.0
31/03:00pm 30.8 31.0 24.7 70 4.3 ESE 32 41 17 22 1008.5 1008.5 0.0
31/02:30pm 30.2 29.5 23.6 67 4.6 ESE 33 44 18 24 1008.8 - 0.0
31/02:00pm 30.9 31.2 24.3 68 4.6 ESE 30 43 16 23 1009.2 - 0.0
31/01:30pm 30.2 30.7 23.9 69 4.4 ESE 28 39 15 21 1009.6 - 0.0
31/01:00pm 30.4 31.0 24.1 69 4.4 SE 28 39 15 21 1010.1 - 0.0
31/12:30pm 30.8 31.9 24.9 71 4.1 ESE 28 39 15 21 1010.6 - 0.0
31/12:00pm 31.2 32.5 24.6 68 4.6 ESE 26 35 14 19 1011.1 1011.1 0.0
31/11:30am 30.7 31.2 24.6 70 4.3 SE 30 39 16 21 1011.6 - 0.0
31/11:00am 30.7 32.4 25.3 73 3.8 SE 26 39 14 21 1011.7 - 0.0
31/10:30am 30.3 31.8 24.9 73 3.8 ESE 26 41 14 22 1012.0 - 0.0
31/10:00am 28.9 31.8 25.1 80 2.7 SSE 19 30 10 16 1012.3 - 0.0
31/09:30am 28.5 30.8 25.1 82 2.4 SE 22 35 12 19 1012.4 - 0.0
31/09:00am 29.0 31.8 24.3 76 3.3 SE 17 24 9 13 1012.3 1012.3 0.0
31/08:30am 28.5 31.3 24.3 78 2.9 SE 17 26 9 14 1012.4 - 0.0
31/08:00am 28.1 32.2 24.5 81 2.5 SE 11 20 6 11 1012.2 - 0.0
31/07:30am 27.5 31.2 24.5 84 2.1 SSE 13 15 7 8 1011.9 - 0.0
31/07:00am 26.6 31.0 24.4 88 1.5 SSE 9 15 5 8 1011.5 - 0.0
31/06:30am 26.7 29.9 24.4 87 1.6 SSE 15 19 8 10 1011.1 - 0.0
31/06:00am 26.7 29.7 24.0 85 1.9 SSE 15 24 8 13 1010.7 1010.7 0.0
31/05:30am 26.8 29.5 24.1 85 1.9 SE 17 26 9 14 1010.4 - 0.0
31/05:00am 27.3 28.0 23.7 81 2.5 SE 26 35 14 19 1010.4 - 0.0
31/04:30am 27.5 30.2 24.1 82 2.3 SE 17 24 9 13 1010.3 - 0.0
31/04:00am 27.5 29.5 23.9 81 2.5 ESE 20 26 11 14 1010.3 - 0.0
31/03:30am 27.4 29.6 24.0 82 2.3 ESE 19 24 10 13 1010.4 - 0.0
31/03:00am 27.5 29.1 23.9 81 2.5 ESE 22 32 12 17 1010.5 1010.5 0.0
31/02:30am 27.7 29.7 23.9 80 2.6 ESE 20 26 11 14 1010.8 - 0.0
31/02:00am 27.6 29.2 23.8 80 2.6 ESE 22 28 12 15 1011.2 - 0.0
31/01:30am 27.7 28.9 23.9 80 2.6 ESE 24 32 13 17 1011.5 - 0.0
31/01:00am 27.8 29.8 24.0 80 2.6 ESE 20 28 11 15 1011.8 - 0.0
31/12:30am 27.8 29.1 24.0 80 2.6 ESE 24 35 13 19 1012.0 - 0.0
31/12:00am 27.9 28.9 24.1 80 2.6 ESE 26 37 14 20 1012.3 1012.3 0.0
 
Date/Time
EST
Temp
°C
App
Temp
°C
Dew
Point
Rel
Hum
%
Delta-T
°C
Wind Press
QNH
hPa
Press
MSL
hPa
Rain
since 9 am
mm
Dir
 
Spd
km/h
Gust
km/h
Spd
kts
Gust
kts
30/11:30pm 27.8 28.7 24.0 80 2.6 ESE 26 35 14 19 1012.4 - 0.0
30/11:00pm 27.9 29.2 24.1 80 2.6 ESE 24 35 13 19 1012.5 - 0.0
30/10:30pm 27.7 29.7 24.5 83 2.2 ESE 22 32 12 17 1012.6 - 0.0
30/10:00pm 27.6 29.0 24.2 82 2.4 ESE 24 32 13 17 1012.8 - 0.0
30/09:30pm 27.7 29.0 24.1 81 2.5 ESE 24 33 13 18 1012.7 - 0.0
30/09:00pm 27.7 29.5 24.3 82 2.4 SE 22 33 12 18 1012.5 1012.5 0.0
30/08:30pm 27.7 28.8 24.3 82 2.4 SE 26 35 14 19 1012.5 - 0.0
30/08:00pm 27.7 29.4 24.1 81 2.5 SE 22 35 12 19 1012.1 - 0.0
30/07:30pm 28.1 29.7 23.9 78 2.9 ESE 22 33 12 18 1011.5 - 0.0
30/07:00pm 28.2 29.9 24.0 78 2.9 ESE 22 30 12 16 1011.3 - 0.0
30/06:30pm 28.4 29.7 24.0 77 3.0 ESE 24 33 13 18 1011.0 - 0.0
30/06:00pm 28.9 29.6 23.6 73 3.7 ESE 26 35 14 19 1010.7 1010.7 0.0
30/05:30pm 29.3 30.7 24.2 74 3.5 ESE 24 35 13 19 1010.5 - 0.0
30/05:00pm 29.6 30.1 24.0 72 3.9 ESE 28 37 15 20 1010.3 - 0.0
30/04:30pm 29.9 29.9 23.8 70 4.2 ESE 30 39 16 21 1010.2 - 0.0
30/04:00pm 30.2 31.0 24.4 71 4.0 E 28 41 15 22 1010.1 - 0.0
30/03:30pm 30.4 30.8 25.0 73 3.8 E 32 44 17 24 1010.0 - 0.0
30/03:00pm 30.2 33.6 26.1 79 2.9 E 20 32 11 17 1010.0 1010.0 0.0
30/02:30pm 28.1 29.8 24.7 82 2.4 E 24 39 13 21 1010.3 - 0.0
30/02:00pm 29.9 30.5 24.1 71 4.0 E 28 37 15 20 1010.5 - 0.0
30/01:30pm 30.0 30.0 23.7 69 4.4 E 30 43 16 23 1010.8 - 0.0
30/01:00pm 30.0 29.2 23.4 67 4.5 ESE 33 41 18 22 1011.2 - 0.0
30/12:30pm 29.3 30.6 24.6 76 3.3 E 26 37 14 20 1011.6 - 0.0
30/12:00pm 30.2 31.6 24.8 73 3.8 E 26 39 14 21 1011.9 1011.9 0.0

Other Formats:

Comma delimited format used in spreadsheet applications
http://www.bom.gov.au/fwo/IDQ60801/IDQ60801.94174.axf

JavaScript Object Notation format (JSON) in row-major order
http://www.bom.gov.au/fwo/IDQ60801/IDQ60801.94174.json